Time;durP1;ratioP1;P1;durP2;ratioP2;P2;SDS_P1;SDS_P2;PMS_P1;PMS_P2;Temp;Humidity;BMP_temperature;BMP_pressure;BME280_temperature;BME280_humidity;BME280_pressure;Samples;Min_cycle;Max_cycle;Signal;HPM_P1;HPM_P2
2021/05/17 00:02:46;;;;;;;2.15;1.10;;;14.60;63.00;;;14.39;45.74;93729.88;5123528;27;20580;-79
2021/05/17 00:05:13;;;;;;;1.30;1.20;;;14.60;62.90;;;14.40;45.88;93732.28;5087630;28;20663;-78
2021/05/17 00:07:40;;;;;;;1.20;1.10;;;14.60;63.20;;;14.41;46.33;93728.59;5073067;28;20221;-79
2021/05/17 00:10:11;;;;;;;1.15;1.02;;;14.60;63.20;;;14.41;46.04;93727.78;5060987;28;20476;-78
2021/05/17 00:12:38;;;;;;;2.35;1.38;;;14.60;63.10;;;14.42;46.00;93718.84;5033888;28;20238;-79
2021/05/17 00:15:13;;;;;;;1.98;1.08;;;14.60;63.10;;;14.38;46.34;93718.53;4994607;28;20333;-78
2021/05/17 00:17:41;;;;;;;1.30;1.20;;;14.60;63.20;;;14.41;45.90;93715.41;4938035;28;20238;-79
2021/05/17 00:20:10;;;;;;;1.33;1.13;;;14.60;63.30;;;14.40;46.55;93715.63;4824069;29;20227;-79
2021/05/17 00:24:42;;;;;;;1.95;1.10;;;14.60;63.50;;;14.36;46.01;93711.91;5148996;27;20528;-78
2021/05/17 00:27:09;;;;;;;1.80;1.52;;;14.70;63.40;;;14.33;46.27;93710.56;5091342;28;20200;-79
2021/05/17 00:29:36;;;;;;;1.00;1.00;;;14.60;63.00;;;14.28;46.31;93705.22;5100494;28;20608;-79
2021/05/17 00:32:03;;;;;;;1.75;1.35;;;14.60;63.20;;;14.32;46.28;93706.31;5070710;28;20206;-78
2021/05/17 00:34:30;;;;;;;3.10;1.30;;;14.60;63.20;;;14.30;46.27;93708.41;4984539;28;20691;-79
2021/05/17 00:36:57;;;;;;;1.48;1.20;;;14.60;63.30;;;14.31;46.36;93709.22;4845551;29;20209;-79
2021/05/17 00:39:25;;;;;;;1.33;1.10;;;14.60;63.60;;;14.31;46.49;93703.94;4786635;29;20221;-79
2021/05/17 00:41:53;;;;;;;1.73;1.10;;;14.60;63.80;;;14.28;46.61;93705.22;4624241;30;20293;-79
2021/05/17 00:46:14;;;;;;;2.15;1.20;;;14.50;63.60;;;14.21;46.77;93710.66;5142844;27;20567;-78
2021/05/17 00:48:41;;;;;;;3.15;1.27;;;14.50;63.70;;;14.21;46.59;93707.25;5083494;28;20687;-79
2021/05/17 00:51:09;;;;;;;1.40;1.30;;;14.50;63.80;;;14.20;46.82;93710.91;5043773;28;20221;-79
2021/05/17 00:53:37;;;;;;;1.30;1.20;;;14.50;63.80;;;14.15;46.64;93706.38;5040305;28;20745;-79
2021/05/17 00:56:05;;;;;;;2.45;1.10;;;14.50;64.10;;;14.12;47.09;93714.75;4943926;28;20212;-79
2021/05/17 00:58:35;;;;;;;1.08;1.05;;;14.50;64.40;;;14.08;47.24;93708.38;4867310;29;20251;-79
2021/05/17 01:01:04;;;;;;;1.38;1.20;;;14.40;64.20;;;14.02;47.61;93704.06;4723681;30;20208;-79
2021/05/17 01:03:33;;;;;;;2.45;1.13;;;14.40;64.50;;;13.95;47.62;93709.50;4565545;30;20266;-79
2021/05/17 01:07:56;;;;;;;1.15;1.10;;;14.40;64.40;;;13.87;47.20;93710.72;5140464;27;20912;-79
2021/05/17 01:10:26;;;;;;;1.75;1.20;;;14.30;64.20;;;13.83;47.60;93704.34;5067962;28;20202;-79
2021/05/17 01:12:53;;;;;;;1.30;1.20;;;14.30;65.10;;;13.80;47.53;93704.81;5047491;28;20228;-79
2021/05/17 01:15:20;;;;;;;2.00;1.23;;;14.20;64.00;;;13.77;47.69;93706.09;5084361;28;20659;-78
2021/05/17 01:17:47;;;;;;;1.90;1.30;;;14.20;64.30;;;13.75;47.64;93704.75;5045789;28;20718;-79
2021/05/17 01:20:27;;;;;;;1.15;1.05;;;14.10;64.10;;;13.68;47.89;93712.03;4914572;28;20217;-79
2021/05/17 01:26:01;;;;;;;1.95;1.10;;;14.10;64.80;;;13.52;47.92;93724.16;4715391;29;20300;-79
2021/05/17 01:28:40;;;;;;;2.72;1.20;;;14.00;64.30;;;13.45;47.98;93719.03;5131281;27;20319;-79
2021/05/17 01:31:10;;;;;;;1.30;1.20;;;13.90;64.30;;;13.39;48.12;93720.00;5083945;28;20608;-79
2021/05/17 01:33:41;;;;;;;1.25;1.15;;;13.90;64.50;;;13.36;47.60;93712.56;5106690;27;20236;-79
2021/05/17 01:36:12;;;;;;;1.25;1.15;;;13.80;64.70;;;13.32;48.04;93711.41;5064843;28;20202;-79
2021/05/17 01:38:47;;;;;;;1.30;1.20;;;13.80;64.70;;;13.28;48.27;93719.81;4976374;28;20249;-79
2021/05/17 01:41:17;;;;;;;1.20;1.10;;;13.70;64.80;;;13.24;48.29;93725.78;4892281;29;20213;-79
2021/05/17 01:43:52;;;;;;;2.45;1.20;;;13.80;65.00;;;13.21;48.40;93715.75;4842388;29;20223;-79
2021/05/17 01:46:25;;;;;;;2.55;1.25;;;13.60;65.10;;;13.14;48.33;93715.88;4680634;30;20224;-79
2021/05/17 01:49:03;;;;;;;1.20;1.10;;;13.60;64.80;;;13.14;48.12;93715.88;5132935;27;21147;-79
2021/05/17 01:51:32;;;;;;;1.27;1.17;;;13.60;64.90;;;13.09;48.26;93721.84;5087832;28;20200;-78
2021/05/17 01:54:00;;;;;;;1.58;1.13;;;13.50;64.80;;;13.05;48.50;93722.56;5090442;28;20799;-79
2021/05/17 01:56:27;;;;;;;1.00;1.00;;;13.50;64.90;;;12.97;48.39;93719.28;5103846;28;20218;-79
2021/05/17 01:59:07;;;;;;;1.17;1.08;;;13.40;64.80;;;12.95;48.49;93712.63;4992530;28;20229;-79
2021/05/17 02:01:34;;;;;;;1.15;1.00;;;13.40;65.10;;;12.90;48.49;93705.47;4925538;28;20693;-79
2021/05/17 02:04:05;;;;;;;1.48;1.10;;;13.40;65.10;;;12.88;48.90;93710.16;4738129;29;20637;-79
2021/05/17 02:06:32;;;;;;;1.25;1.15;;;13.30;65.30;;;12.86;48.92;93703.53;4453261;31;20234;-79
2021/05/17 02:10:46;;;;;;;1.77;1.13;;;13.30;65.30;;;12.79;49.38;93699.22;5149312;27;20590;-79
2021/05/17 02:13:19;;;;;;;1.20;1.10;;;13.30;65.20;;;12.78;49.28;93697.63;5069397;28;20221;-78
2021/05/17 02:15:48;;;;;;;2.08;1.40;;;13.20;65.50;;;12.79;49.38;93703.66;5033220;28;20211;-79
2021/05/17 02:18:17;;;;;;;1.27;1.10;;;13.20;65.40;;;12.77;49.33;93706.53;5059868;28;20685;-79
2021/05/17 02:20:45;;;;;;;1.20;1.10;;;13.20;65.30;;;12.76;49.56;93719.94;4990307;28;20211;-79
2021/05/17 02:23:17;;;;;;;1.45;1.17;;;13.20;65.50;;;12.79;49.90;93724.72;4920434;29;20273;-79
2021/05/17 02:25:49;;;;;;;2.45;1.35;;;13.30;65.90;;;12.78;50.02;93726.56;4768723;29;20308;-79
2021/05/17 02:28:19;;;;;;;1.20;1.10;;;13.10;65.80;;;12.77;49.90;93724.19;4739393;29;20240;-79
2021/05/17 02:32:45;;;;;;;1.25;1.15;;;13.10;65.80;;;12.73;49.86;93725.66;5143191;27;20992;-79
2021/05/17 02:35:20;;;;;;;1.35;1.10;;;13.10;65.60;;;12.69;49.83;93722.69;5068867;28;20218;-79
2021/05/17 02:37:49;;;;;;;2.13;1.30;;;13.10;65.80;;;12.69;50.10;93725.31;5073006;28;20227;-79
2021/05/17 02:40:18;;;;;;;1.30;1.20;;;13.10;65.90;;;12.67;49.87;93722.16;5042777;28;20199;-79
2021/05/17 02:42:48;;;;;;;1.30;1.20;;;13.10;65.90;;;12.68;50.40;93722.94;4958196;28;20221;-79
2021/05/17 02:45:22;;;;;;;2.47;1.20;;;13.10;66.10;;;12.60;49.96;93721.50;4871332;29;20221;-78
2021/05/17 02:47:52;;;;;;;1.60;1.02;;;13.10;66.00;;;12.61;50.76;93742.28;4807021;29;20239;-80
2021/05/17 02:50:20;;;;;;;1.67;1.27;;;13.10;66.20;;;12.62;51.29;93762.31;4677501;30;20222;-83
2021/05/17 02:52:59;;;;;;;1.10;1.00;;;13.00;66.50;;;12.63;51.01;93752.56;5142059;27;20318;-78
2021/05/17 02:55:32;;;;;;;1.27;1.10;;;13.00;66.40;;;12.60;50.77;93756.47;5102048;28;20204;-79
2021/05/17 02:58:09;;;;;;;2.15;1.35;;;13.00;66.80;;;12.59;50.62;93762.75;5038725;28;20223;-78
2021/05/17 03:00:37;;;;;;;1.60;1.10;;;13.00;66.60;;;12.60;51.05;93776.72;5023157;28;20655;-78
2021/05/17 03:03:13;;;;;;;1.33;1.00;;;13.00;66.80;;;12.54;50.91;93757.41;5037187;28;20254;-79
2021/05/17 03:06:04;;;;;;;1.52;1.20;;;13.00;66.80;;;12.54;51.79;93767.91;5009013;28;20227;-79
2021/05/17 03:08:56;;;;;;;1.30;1.10;;;12.90;66.90;;;12.53;51.15;93758.44;4833252;29;20255;-78
2021/05/17 03:11:42;;;;;;;1.33;1.23;;;12.90;67.70;;;12.53;51.77;93765.53;5150471;27;20652;-79
2021/05/17 03:14:15;;;;;;;1.17;1.08;;;13.00;67.30;;;12.51;51.94;93771.00;5058683;28;20226;-79
2021/05/17 03:16:50;;;;;;;1.30;1.13;;;12.90;67.30;;;12.54;51.76;93769.75;5027191;28;20302;-79
2021/05/17 03:19:18;;;;;;;1.80;1.35;;;12.90;67.30;;;12.54;51.77;93773.19;5040449;28;20313;-79
2021/05/17 03:21:46;;;;;;;2.30;1.20;;;12.90;67.30;;;12.52;51.79;93774.44;5007584;28;20612;-80
2021/05/17 03:24:14;;;;;;;1.70;1.27;;;12.90;67.10;;;12.51;52.57;93773.63;4949080;28;20297;-79
2021/05/17 03:26:42;;;;;;;1.83;1.17;;;12.90;67.50;;;12.51;52.30;93773.63;4817082;29;20215;-78
2021/05/17 03:29:34;;;;;;;1.20;1.10;;;12.90;67.50;;;12.50;51.96;93779.94;5144605;27;21175;-79
2021/05/17 03:32:00;;;;;;;1.88;1.10;;;12.80;67.40;;;12.52;51.59;93780.50;5073275;28;20205;-79
2021/05/17 03:34:27;;;;;;;1.88;1.27;;;12.90;67.50;;;12.53;52.00;93781.31;5115896;28;20218;-79
2021/05/17 03:36:54;;;;;;;1.90;1.10;;;12.90;67.50;;;12.52;51.82;93780.50;5096671;28;20205;-78
2021/05/17 03:39:20;;;;;;;1.13;1.10;;;12.90;67.50;;;12.55;52.01;93789.75;5063634;28;20219;-79
2021/05/17 03:41:47;;;;;;;1.25;1.10;;;12.90;67.50;;;12.57;51.97;93785.06;4993097;28;20264;-78
2021/05/17 03:44:14;;;;;;;2.08;1.10;;;12.90;67.60;;;12.60;51.55;93782.00;4931961;28;20587;-79
2021/05/17 03:46:41;;;;;;;1.08;0.98;;;12.90;67.70;;;12.63;51.76;93792.84;4836038;29;20269;-78
2021/05/17 03:51:44;;;;;;;1.00;1.00;;;12.90;67.50;;;12.66;52.11;93775.78;5149658;27;20643;-79
2021/05/17 03:54:11;;;;;;;1.23;1.13;;;12.90;67.70;;;12.65;51.78;93761.81;5123244;27;20216;-79
2021/05/17 03:56:38;;;;;;;1.50;1.20;;;13.00;67.70;;;12.70;51.58;93755.88;5090013;28;20202;-79
2021/05/17 03:59:04;;;;;;;1.95;1.20;;;12.90;67.60;;;12.71;51.88;93748.78;5106213;28;20220;-79
2021/05/17 04:01:31;;;;;;;1.60;1.13;;;13.00;67.70;;;12.75;51.71;93749.91;5065720;28;20204;-78
2021/05/17 04:03:58;;;;;;;1.10;1.10;;;13.00;67.80;;;12.77;52.02;93747.84;4978862;28;20261;-78
2021/05/17 04:06:36;;;;;;;2.85;1.10;;;13.00;67.70;;;12.76;52.17;93749.66;4923456;28;20208;-79
2021/05/17 04:13:40;;;;;;;1.30;1.20;;;13.00;67.90;;;12.73;52.12;93750.16;5131832;27;20665;-79
2021/05/17 04:16:08;;;;;;;1.58;1.30;;;13.10;68.00;;;12.76;52.62;93743.63;5060858;28;20611;-79
2021/05/17 04:18:34;;;;;;;1.42;1.20;;;13.10;68.10;;;12.81;52.73;93751.59;5059603;28;20234;-78
2021/05/17 04:21:01;;;;;;;1.83;1.23;;;13.10;68.30;;;12.82;52.87;93746.09;4992139;28;20209;-78
2021/05/17 04:23:29;;;;;;;1.48;1.20;;;13.10;69.30;;;12.92;52.54;93756.03;4938597;28;20223;-79
2021/05/17 04:25:55;;;;;;;2.33;1.20;;;13.10;68.40;;;13.00;52.90;93746.16;4829431;29;20228;-80
2021/05/17 04:28:22;;;;;;;1.92;1.13;;;13.10;68.50;;;13.12;52.60;93752.97;4696091;30;20229;-79
2021/05/17 04:30:48;;;;;;;1.40;1.30;;;13.20;68.60;;;13.21;53.04;93744.69;4518036;30;20243;-78
2021/05/17 04:35:39;;;;;;;1.45;1.20;;;13.30;69.00;;;13.37;52.64;93762.34;5124565;27;21107;-80
2021/05/17 04:38:05;;;;;;;1.23;1.10;;;13.40;68.90;;;13.42;53.08;93770.38;5102737;28;20229;-78
2021/05/17 04:40:33;;;;;;;1.77;1.10;;;13.50;68.90;;;13.47;52.55;93780.19;5074433;28;20423;-78
2021/05/17 04:43:00;;;;;;;1.17;1.00;;;13.50;68.80;;;13.53;52.77;93784.50;5047246;28;20247;-79
2021/05/17 04:45:26;;;;;;;1.73;1.27;;;13.60;68.70;;;13.56;52.87;93780.59;5017547;28;20256;-78
2021/05/17 04:47:55;;;;;;;1.10;1.00;;;13.70;68.60;;;13.62;52.55;93790.19;4891251;29;20239;-79
2021/05/17 04:50:23;;;;;;;1.10;1.00;;;13.70;68.60;;;13.65;52.59;93789.72;4801519;29;20292;-80
2021/05/17 04:52:49;;;;;;;1.40;1.30;;;13.80;68.50;;;13.67;52.92;93776.28;4633698;30;20260;-79
2021/05/17 04:57:51;;;;;;;1.35;1.25;;;13.90;68.70;;;13.78;52.43;93749.09;5118781;27;20595;-79
2021/05/17 05:00:18;;;;;;;1.52;1.20;;;13.90;68.50;;;13.85;52.44;93741.78;5079732;28;20298;-79
2021/05/17 05:02:45;;;;;;;1.85;1.00;;;13.90;68.50;;;13.87;52.32;93746.84;5053030;28;20242;-79
2021/05/17 05:05:12;;;;;;;0.85;0.85;;;14.00;68.60;;;13.90;52.17;93762.97;5029629;28;20204;-79
2021/05/17 05:07:41;;;;;;;1.15;1.00;;;14.00;68.40;;;13.92;52.33;93768.00;5010295;28;20253;-79
2021/05/17 05:10:08;;;;;;;1.08;1.00;;;14.10;68.40;;;13.91;52.30;93769.03;4862615;29;20210;-80
2021/05/17 05:12:37;;;;;;;1.25;1.15;;;14.10;68.30;;;13.89;52.18;93766.66;4729449;30;20227;-79
2021/05/17 05:15:07;;;;;;;1.33;1.10;;;14.10;68.30;;;13.91;52.14;93769.84;4557566;30;20227;-79
2021/05/17 05:19:26;;;;;;;1.13;1.02;;;14.10;68.20;;;13.90;52.51;93772.69;5126728;27;20575;-80
2021/05/17 05:21:52;;;;;;;1.83;1.10;;;14.20;68.50;;;13.90;52.50;93776.16;5087198;28;20200;-79
2021/05/17 05:24:19;;;;;;;0.93;0.93;;;14.20;68.40;;;13.89;52.55;93774.56;5083488;28;20241;-80
2021/05/17 05:29:32;;;;;;;1.35;1.02;;;14.20;68.40;;;13.89;52.88;93774.56;5041753;28;20260;-79
2021/05/17 05:32:08;;;;;;;1.17;1.10;;;14.10;68.40;;;13.88;52.69;93770.31;4922609;29;20215;-79
2021/05/17 05:34:35;;;;;;;1.10;1.00;;;14.20;68.40;;;13.80;52.79;93772.56;4827669;29;20225;-80
2021/05/17 05:37:04;;;;;;;0.80;0.80;;;14.20;68.50;;;13.89;52.71;93776.38;4638455;30;20234;-79
2021/05/17 05:41:23;;;;;;;1.00;0.95;;;14.10;68.40;;;13.92;52.78;93792.50;5131506;27;21167;-80
2021/05/17 05:43:50;;;;;;;1.00;1.00;;;14.20;68.60;;;14.02;52.29;93788.44;5086608;28;20226;-80
2021/05/17 05:46:17;;;;;;;0.82;0.82;;;14.20;68.70;;;14.12;52.92;93785.94;5062998;28;20246;-79
2021/05/17 05:48:49;;;;;;;0.90;0.90;;;14.20;68.80;;;14.21;52.64;93786.34;5023154;28;20228;-79
2021/05/17 05:51:19;;;;;;;1.23;0.95;;;14.30;68.80;;;14.26;52.65;93783.78;4997369;28;20200;-79
2021/05/17 05:53:45;;;;;;;0.90;0.90;;;14.50;69.00;;;14.34;52.29;93790.47;4934004;28;20238;-79
2021/05/17 05:56:12;;;;;;;1.00;1.00;;;14.30;68.60;;;14.35;52.58;93795.50;4857704;29;20205;-78
2021/05/17 05:58:42;;;;;;;0.90;0.90;;;14.50;68.70;;;14.35;52.32;93798.13;4652988;30;20235;-79
2021/05/17 06:02:50;;;;;;;0.93;0.93;;;14.60;68.60;;;14.29;52.58;93812.28;5139064;27;20926;-79
2021/05/17 06:05:16;;;;;;;0.90;0.90;;;14.60;68.40;;;14.26;52.25;93796.97;5120395;28;20197;-80
2021/05/17 06:07:43;;;;;;;0.80;0.80;;;14.50;68.30;;;14.26;52.32;93799.59;5105452;28;20238;-79
2021/05/17 06:10:10;;;;;;;0.93;0.93;;;14.50;68.30;;;14.22;52.43;93799.28;5118731;28;20200;-80
2021/05/17 06:12:39;;;;;;;1.27;1.00;;;14.50;68.40;;;14.24;52.28;93802.50;4987522;28;20595;-80
2021/05/17 06:15:10;;;;;;;0.70;0.70;;;14.50;68.30;;;14.28;52.51;93808.09;4980275;28;20245;-80
2021/05/17 06:17:37;;;;;;;0.80;0.80;;;14.50;68.40;;;14.31;52.53;93812.06;4926871;29;20228;-80
2021/05/17 06:20:05;;;;;;;0.80;0.80;;;14.50;68.40;;;14.31;52.24;93807.59;4782698;29;20271;-80
2021/05/17 06:24:20;;;;;;;1.27;1.17;;;14.50;68.40;;;14.28;52.83;93808.09;5130624;27;20647;-80
2021/05/17 06:26:52;;;;;;;0.85;0.85;;;14.50;68.40;;;14.25;52.71;93809.34;5108144;28;20192;-80
2021/05/17 06:29:18;;;;;;;1.65;0.90;;;14.60;68.60;;;14.23;52.89;93803.53;5045617;28;20657;-80
2021/05/17 06:31:48;;;;;;;2.15;0.90;;;14.50;68.60;;;14.22;53.06;93814.28;5053407;28;20213;-81
2021/05/17 06:34:15;;;;;;;0.73;0.73;;;14.50;68.70;;;14.23;52.94;93811.44;5054842;28;20654;-81
2021/05/17 06:36:42;;;;;;;0.88;0.88;;;14.50;68.70;;;14.25;52.81;93814.63;5039712;28;20214;-80
2021/05/17 06:39:10;;;;;;;0.98;0.90;;;14.50;68.80;;;14.25;53.22;93806.69;5006409;28;20696;-81
2021/05/17 06:44:31;;;;;;;1.48;1.00;;;14.50;68.90;;;14.28;52.99;93815.19;5148380;27;20532;-79
2021/05/17 06:46:58;;;;;;;0.80;0.80;;;14.50;68.90;;;14.30;52.91;93819.16;5109463;27;20207;-80
2021/05/17 06:49:27;;;;;;;0.80;0.80;;;14.60;69.00;;;14.32;53.17;93821.56;5114354;28;20295;-81
2021/05/17 06:51:54;;;;;;;0.77;0.77;;;14.50;69.00;;;14.32;53.12;93822.38;5105783;27;20197;-80
2021/05/17 06:54:28;;;;;;;12.55;1.33;;;14.50;69.00;;;14.39;52.92;93817.72;5091760;28;20303;-79
2021/05/17 06:57:15;;;;;;;0.70;0.70;;;14.60;69.10;;;14.50;53.06;93828.41;5000717;28;20234;-81
2021/05/17 07:00:07;;;;;;;0.90;0.90;;;14.60;69.10;;;14.54;53.29;93829.53;4838255;29;20221;-81
2021/05/17 07:05:28;;;;;;;0.90;0.80;;;14.60;69.20;;;14.65;53.06;93819.94;5150346;27;21123;-80
2021/05/17 07:11:33;;;;;;;0.98;0.80;;;14.80;69.40;;;14.78;52.90;93822.25;5117611;28;20298;-80
2021/05/17 07:13:29;;;;;;;0.80;0.80;;;14.90;69.50;;;15.07;52.57;93822.03;5025466;28;20692;-79
2021/05/17 07:15:56;;;;;;;0.80;0.80;;;15.00;69.20;;;15.16;52.32;93819.75;5045027;28;20579;-80
2021/05/17 07:18:22;;;;;;;0.90;0.90;;;15.10;69.20;;;15.21;52.03;93835.69;4999698;28;20234;-80
2021/05/17 07:23:40;;;;;;;1.17;0.80;;;15.20;68.80;;;15.10;52.09;93832.13;5136140;27;20653;-80
2021/05/17 07:26:14;;;;;;;1.00;0.90;;;15.20;68.60;;;15.02;52.04;93829.91;5107987;28;20201;-80
2021/05/17 07:28:41;;;;;;;0.93;0.90;;;15.20;68.50;;;14.95;52.57;93832.75;5084263;28;20279;-80
2021/05/17 07:31:09;;;;;;;1.38;0.80;;;15.20;68.50;;;14.90;52.20;93822.09;5041194;28;20270;-80
2021/05/17 07:33:40;;;;;;;0.52;0.52;;;15.20;68.50;;;14.87;52.36;93830.53;4972606;28;20238;-80
2021/05/17 07:36:21;;;;;;;0.80;0.80;;;15.10;68.50;;;14.85;52.37;93837.88;4883086;29;20675;-80
2021/05/17 07:38:48;;;;;;;0.80;0.80;;;15.10;68.60;;;14.80;52.36;93830.69;4829039;29;20241;-80
2021/05/17 07:41:37;;;;;;;0.80;0.80;;;15.10;68.70;;;14.74;53.77;93842.22;5150436;27;20652;-80
2021/05/17 07:44:05;;;;;;;0.80;0.80;;;15.20;69.20;;;14.63;53.96;93843.13;5112108;27;20228;-80
2021/05/17 07:46:32;;;;;;;1.10;0.90;;;15.00;69.20;;;14.56;54.49;93840.63;5109266;28;20560;-80
2021/05/17 07:51:31;;;;;;;0.90;0.90;;;14.90;69.50;;;14.52;54.14;93844.81;5086527;28;20300;-80
2021/05/17 07:53:57;;;;;;;0.75;0.75;;;14.80;69.50;;;14.56;53.66;93853.81;5041540;28;20232;-80
2021/05/17 07:56:25;;;;;;;1.00;0.90;;;14.90;69.70;;;14.59;53.86;93845.44;4968799;28;20293;-79
2021/05/17 07:58:52;;;;;;;0.80;0.80;;;14.80;69.70;;;14.70;54.01;93856.97;4771777;29;20242;-79
2021/05/17 08:03:02;;;;;;;0.80;0.80;;;14.90;69.80;;;14.72;53.79;93857.50;5141675;27;20658;-80
2021/05/17 08:05:38;;;;;;;0.80;0.80;;;14.90;69.80;;;14.83;53.78;93861.06;5068325;28;20221;-80
2021/05/17 08:08:05;;;;;;;0.90;0.90;;;14.90;70.00;;;14.92;53.77;93859.63;5049646;28;20226;-80
2021/05/17 08:10:34;;;;;;;0.80;0.80;;;15.00;70.00;;;15.00;53.52;93861.03;5026802;28;20689;-80
2021/05/17 08:13:00;;;;;;;0.77;0.77;;;15.10;69.80;;;15.12;53.31;93861.69;5010352;28;20220;-79
2021/05/17 08:15:27;;;;;;;0.80;0.80;;;15.20;69.90;;;15.17;53.22;93860.97;4999655;28;20679;-80
2021/05/17 08:17:54;;;;;;;0.85;0.85;;;15.20;69.80;;;15.20;52.75;93869.19;4914227;28;20259;-79
2021/05/17 08:20:23;;;;;;;1.05;0.90;;;15.30;69.40;;;15.20;52.76;93869.19;4722267;29;20680;-79
2021/05/17 08:24:43;;;;;;;0.90;0.90;;;15.30;69.40;;;15.28;52.53;93875.09;5150493;27;20634;-79
2021/05/17 08:27:10;;;;;;;0.70;0.70;;;15.40;69.30;;;15.33;52.10;93873.31;5108385;27;20637;-80
2021/05/17 08:29:39;;;;;;;0.80;0.80;;;15.50;69.00;;;15.41;52.03;93879.22;5082454;27;20574;-79
2021/05/17 08:32:10;;;;;;;0.80;0.80;;;15.50;68.80;;;15.45;51.37;93883.78;5091088;28;20602;-79
2021/05/17 08:34:38;;;;;;;0.90;0.90;;;15.50;68.50;;;15.54;51.70;93886.75;5041526;28;20231;-80
2021/05/17 08:37:05;;;;;;;1.00;0.90;;;15.60;68.80;;;15.61;51.61;93879.44;4971941;28;20296;-80
2021/05/17 08:39:32;;;;;;;1.00;0.90;;;15.60;68.60;;;15.75;51.50;93868.47;4871180;29;20241;-79
2021/05/17 08:41:59;;;;;;;0.90;0.90;;;15.70;69.00;;;15.92;51.68;93881.63;4655587;30;20228;-80
2021/05/17 08:46:58;;;;;;;1.27;0.95;;;15.80;69.00;;;16.20;50.99;93882.38;5150492;27;20382;-80
2021/05/17 08:49:25;;;;;;;1.42;0.93;;;16.00;68.90;;;16.39;50.83;93882.78;5111944;27;20665;-80
2021/05/17 08:51:53;;;;;;;1.30;1.20;;;16.10;68.90;;;16.49;50.63;93880.22;5111971;27;20208;-80
2021/05/17 08:54:20;;;;;;;1.00;1.00;;;16.20;68.60;;;16.68;50.84;93874.53;5084750;28;20232;-79
2021/05/17 08:56:47;;;;;;;0.80;0.80;;;16.30;68.70;;;16.87;50.49;93872.22;5047040;28;20277;-84
2021/05/17 08:59:24;;;;;;;0.80;0.80;;;16.60;68.80;;;17.08;50.24;93873.19;5003242;28;20241;-80
2021/05/17 09:01:55;;;;;;;1.15;1.08;;;16.60;68.60;;;17.21;49.63;93862.13;4896165;29;20213;-80
2021/05/17 09:04:48;;;;;;;0.95;0.95;;;16.80;68.30;;;17.38;49.83;93858.44;4703365;29;20222;-80
2021/05/17 09:07:44;;;;;;;0.88;0.88;;;17.00;68.30;;;17.59;49.69;93856.66;5146880;27;20713;-80
2021/05/17 09:10:25;;;;;;;1.10;1.10;;;17.20;68.10;;;17.73;49.08;93849.00;5070221;28;20297;-80
2021/05/17 09:13:16;;;;;;;1.10;1.00;;;17.30;67.50;;;17.78;47.66;93856.94;5033484;28;20219;-80
2021/05/17 09:15:50;;;;;;;1.00;1.00;;;17.50;66.90;;;17.84;48.11;93852.47;5000571;28;20259;-81
2021/05/17 09:18:26;;;;;;;1.00;1.00;;;17.60;66.70;;;17.88;47.75;93849.03;5032885;28;20249;-80
2021/05/17 09:21:05;;;;;;;1.10;1.00;;;17.70;66.50;;;17.93;47.16;93856.16;4898446;28;20228;-81
2021/05/17 09:23:34;;;;;;;0.90;0.90;;;17.80;66.10;;;17.98;47.88;93852.75;4713213;30;20336;-80
2021/05/17 09:26:21;;;;;;;1.17;1.08;;;17.80;66.40;;;17.97;47.26;93862.59;4564886;30;20631;-80
2021/05/17 09:28:58;;;;;;;1.10;0.98;;;17.80;66.20;;;17.74;45.94;93863.84;5133666;27;20319;-79
2021/05/17 09:31:26;;;;;;;1.75;1.00;;;17.80;64.90;;;17.41;46.04;93864.03;5087773;28;20605;-80
2021/05/17 09:34:04;;;;;;;0.80;0.80;;;17.70;64.30;;;17.11;46.47;93862.88;5085484;28;20298;-80
2021/05/17 09:36:42;;;;;;;1.05;0.80;;;17.60;64.70;;;16.78;47.55;93872.75;5035789;28;20242;-79
2021/05/17 09:39:18;;;;;;;1.30;0.95;;;17.40;64.90;;;16.56;48.16;93891.38;5029379;28;20230;-80
2021/05/17 09:41:59;;;;;;;1.13;1.10;;;17.20;65.60;;;16.28;49.29;93885.38;4931936;28;20747;-80
2021/05/17 09:44:28;;;;;;;1.30;1.10;;;17.00;66.30;;;16.04;49.88;93884.91;4848453;29;20711;-80
2021/05/17 09:47:08;;;;;;;1.20;1.10;;;16.80;66.40;;;15.87;50.48;93892.13;4610442;30;20261;-79
2021/05/17 09:49:51;;;;;;;1.85;1.00;;;16.60;67.20;;;15.73;51.17;93886.44;5150367;27;20386;-80
2021/05/17 09:52:22;;;;;;;1.23;1.00;;;16.40;67.10;;;15.60;51.78;93880.47;5082408;28;20201;-80
2021/05/17 09:55:10;;;;;;;0.77;0.77;;;16.30;67.70;;;15.57;52.07;93896.03;5066221;28;20569;-80
2021/05/17 09:57:42;;;;;;;1.05;1.05;;;16.10;68.00;;;15.59;52.30;93884.16;5058381;28;20257;-80
2021/05/17 10:00:29;;;;;;;1.00;1.00;;;16.00;68.80;;;15.64;53.07;93910.66;5017917;28;21240;-80
2021/05/17 10:02:57;;;;;;;1.10;1.10;;;16.00;68.90;;;15.65;52.88;93892.97;4940412;28;20784;-80
2021/05/17 10:05:28;;;;;;;1.00;1.00;;;15.90;69.30;;;15.75;52.64;93887.75;4834422;29;20271;-80
2021/05/17 10:08:09;;;;;;;0.98;0.98;;;15.90;69.30;;;15.87;52.52;93873.63;5141079;27;20651;-80
2021/05/17 10:10:42;;;;;;;0.90;0.90;;;15.90;69.50;;;16.00;52.62;93881.97;5081539;28;20316;-79
2021/05/17 10:13:09;;;;;;;0.90;0.90;;;16.00;69.30;;;16.13;52.04;93879.94;5073707;28;20229;-80
2021/05/17 10:15:36;;;;;;;1.10;1.00;;;16.00;69.30;;;16.20;51.20;93869.13;5092953;28;20209;-79
2021/05/17 10:18:15;;;;;;;0.85;0.80;;;16.10;68.80;;;16.31;51.17;93874.25;5026735;28;20228;-81
2021/05/17 10:20:43;;;;;;;1.08;0.80;;;16.20;68.80;;;16.47;51.23;93869.09;4976020;28;20212;-80
2021/05/17 10:23:13;;;;;;;0.90;0.90;;;16.20;68.80;;;16.67;50.87;93865.78;4883275;29;20258;-80
2021/05/17 10:25:42;;;;;;;0.90;0.90;;;16.40;68.90;;;16.80;50.63;93867.19;4691378;29;20224;-80
2021/05/17 10:30:46;;;;;;;0.90;0.90;;;16.60;68.20;;;17.02;49.59;93882.94;5150396;27;20608;-80
2021/05/17 10:33:20;;;;;;;1.33;1.15;;;16.80;68.00;;;17.04;50.00;93853.53;5111417;27;20223;-80
2021/05/17 10:35:50;;;;;;;0.93;0.90;;;16.90;68.00;;;17.07;49.43;93861.00;5086261;28;20201;-80
2021/05/17 10:38:35;;;;;;;1.85;1.10;;;16.90;67.50;;;17.19;49.71;93856.25;5043736;28;20250;-81
2021/05/17 10:44:08;;;;;;;1.38;1.10;;;17.10;67.70;;;17.38;48.37;93858.44;4950563;28;20293;-80
2021/05/17 10:46:40;;;;;;;1.17;1.00;;;17.20;66.80;;;17.50;48.36;93861.66;4809396;29;20318;-85
2021/05/17 10:51:38;;;;;;;0.82;0.73;;;17.30;66.70;;;17.81;48.15;93847.66;5150297;27;20386;-80
2021/05/17 10:54:25;;;;;;;1.02;0.98;;;17.50;66.90;;;17.91;47.73;93850.34;5111204;27;20224;-81
2021/05/17 10:56:57;;;;;;;1.83;1.10;;;17.60;66.60;;;17.90;47.21;93852.19;5102541;28;20681;-80
2021/05/17 11:02:34;;;;;;;0.93;0.90;;;17.80;67.00;;;18.11;48.15;93846.16;4995674;28;20224;-80
2021/05/17 11:05:14;;;;;;;1.10;1.00;;;17.80;66.70;;;18.19;47.56;93848.28;4963850;28;20309;-80
2021/05/17 11:07:56;;;;;;;1.20;1.10;;;17.90;66.30;;;18.24;47.55;93854.38;4896619;29;20238;-80
2021/05/17 11:13:18;;;;;;;1.98;1.13;;;18.00;66.40;;;18.04;46.72;93846.41;5141883;27;20657;-81
2021/05/17 11:16:02;;;;;;;1.20;1.10;;;18.10;65.60;;;17.96;47.02;93850.38;5077104;28;20225;-80
2021/05/17 11:18:33;;;;;;;1.30;1.20;;;18.00;65.50;;;17.84;47.83;93857.78;5008651;28;20229;-81
2021/05/17 11:21:05;;;;;;;1.10;1.10;;;18.00;65.50;;;17.76;47.42;93848.47;4984116;28;20291;-80
2021/05/17 11:23:32;;;;;;;1.00;1.00;;;17.90;65.70;;;17.70;47.97;93845.03;4992552;28;20565;-80
2021/05/17 11:26:05;;;;;;;1.17;1.10;;;17.80;65.70;;;17.59;47.50;93843.41;4917782;28;20747;-80
2021/05/17 11:28:38;;;;;;;1.40;1.23;;;17.80;65.50;;;17.55;47.74;93851.09;4750700;30;20264;-80
2021/05/17 11:31:28;;;;;;;1.23;1.13;;;17.80;65.70;;;17.56;48.07;93855.31;5150390;27;20645;-81
2021/05/17 11:34:20;;;;;;;2.55;1.20;;;17.70;65.90;;;17.52;47.83;93848.94;5104585;28;20261;-80
2021/05/17 11:36:52;;;;;;;1.33;1.00;;;17.70;65.90;;;17.56;48.18;93849.22;5032055;28;20209;-81
2021/05/17 11:39:24;;;;;;;1.40;1.30;;;17.70;65.90;;;17.58;48.17;93857.72;5069496;28;20238;-80
2021/05/17 11:41:53;;;;;;;1.27;1.17;;;17.70;66.10;;;17.68;48.17;93846.34;5057154;28;20218;-80
2021/05/17 11:44:34;;;;;;;1.30;1.20;;;17.70;66.20;;;17.87;47.95;93836.00;5024938;28;20220;-81
2021/05/17 11:47:28;;;;;;;1.00;1.00;;;17.70;66.20;;;18.11;48.05;93844.28;4851901;29;20634;-80